Aeroporto :
LOGIN :

Iscrizione | Disclaimer

   EN    FR    IT 

 










Sommario :    VFR   VFR Marginale   IFR   IFR Intensivo   IFR Molto Intensivo
Visibilità : 
Base nubi : 
>= 8 km
>= 3000ft
5 / 8 km
1000 / 3000 ft
1500m / 5 km
500 / 1000 ft
800 / 1500m
200 / 500 ft
< 800m
< 200 ft
Simboli :   Temporali  Nebbia  Neve Forte  Precipitazioni Forti  Vento > 20 kt
SIGMETs :   Varie  Temporali  Ghiacco  Turbolenza  Onda orograficha  Ceneri Vulcaniche






- Altitudine del aeroporto : 376 ft


LHKE - Kecskemét

ULTIMO METAR :
  • 221245Z 26008KT 220V300 8000 BKN020 02/M02 Q1029 R12/01//95 NOSIG RMK WHT

METARs OBSOLETI :
  • 221215Z 25008KT 210V280 8000 BKN018 02/M02 Q1029 R12/01//95 NOSIG RMK WHT
  • 221145Z 23010KT 200V260 8000 BKN018 02/M02 Q1029 R12/01//95 NOSIG RMK WHT
  • 221115Z 23006KT 200V270 8000 BKN018 02/M02 Q1031 R12/01//95 NOSIG RMK WHT
  • 221045Z 22008KT 190V250 8000 BKN017 SCT200 01/M02 Q1031 R12/01//95 NOSIG RMK WHT

TAF TAF LHKE
Valido dal 22 a 12 ore il 22 a 21 ore UTC


221115Z 2212/2221 24010KT 8000 SCT020
TEMPO 2212/2215 BKN020
BECMG 2216/2219 27008KT SCT040



MetMap, La meteo Aeronautica in un colpo d'occhio ! - Copyright ORBIFLY Dicembre 2007 - Disclaimer

ORBIFLY MET'MAP TEAM :

Programmazione e sviluppo : Alexandra Zaïnal
Concezione : Baudouin d'Aumeries
Aiuto per la programmazione : Marc-Olivier Méhu
Supporto tecnico e logistico : Manuel Goepfert
Aiuto per la traduzione : Arnaldo La Scala

Contatto : metmap@orbifly.com




FONTI E CREDITI :

   NOAA